createdAt,value
2023-01-25T00:02:23.841Z,35.80
2023-01-25T00:04:50.413Z,32.07
2023-01-25T00:07:16.941Z,35.07
2023-01-25T00:09:43.469Z,29.67
2023-01-25T00:12:09.928Z,31.10
2023-01-25T00:14:36.915Z,27.73
2023-01-25T00:17:03.529Z,27.40
2023-01-25T00:19:30.068Z,29.67
2023-01-25T00:21:56.772Z,32.90
2023-01-25T00:24:24.257Z,35.17
2023-01-25T00:26:50.778Z,32.80
2023-01-25T00:29:17.874Z,26.97
2023-01-25T00:32:14.053Z,26.83
2023-01-25T00:34:46.239Z,28.10
2023-01-25T00:37:20.581Z,29.80
2023-01-25T00:39:47.537Z,35.17
2023-01-25T00:42:15.942Z,33.57
2023-01-25T00:44:42.850Z,33.10
2023-01-25T00:47:12.921Z,32.47
2023-01-25T00:49:41.188Z,31.37
2023-01-25T00:52:08.390Z,32.73
2023-01-25T00:54:34.945Z,31.70
2023-01-25T00:57:01.496Z,36.77
2023-01-25T00:59:28.023Z,31.40
2023-01-25T01:01:54.819Z,33.23
2023-01-25T01:04:25.075Z,39.47
2023-01-25T01:06:53.838Z,39.10
2023-01-25T01:09:21.858Z,35.27
2023-01-25T01:11:48.676Z,30.63
2023-01-25T01:14:15.283Z,32.77
2023-01-25T01:16:41.965Z,36.33
2023-01-25T01:19:08.987Z,33.40
2023-01-25T01:21:35.467Z,35.80
2023-01-25T01:24:02.083Z,35.17
2023-01-25T01:26:28.634Z,36.70
2023-01-25T01:28:55.175Z,33.87
2023-01-25T01:31:24.218Z,38.33
2023-01-25T01:33:52.646Z,32.80
2023-01-25T01:36:21.728Z,34.20
2023-01-25T01:38:48.367Z,30.40
2023-01-25T01:41:16.155Z,32.40
2023-01-25T01:43:43.356Z,32.47
2023-01-25T01:46:35.941Z,31.57
2023-01-25T01:49:23.815Z,34.47
2023-01-25T01:52:06.266Z,33.67
2023-01-25T01:54:42.490Z,30.37
2023-01-25T01:57:29.733Z,31.00
2023-01-25T02:00:18.530Z,34.70
2023-01-25T02:02:46.621Z,32.70
2023-01-25T02:05:40.662Z,32.43
2023-01-25T02:08:10.623Z,32.10
2023-01-25T02:10:38.753Z,35.80
2023-01-25T02:13:05.250Z,29.67
2023-01-25T02:15:42.035Z,34.80
2023-01-25T02:18:10.617Z,38.23
2023-01-25T02:20:52.549Z,41.97
2023-01-25T02:23:51.660Z,41.03
2023-01-25T02:26:19.667Z,45.13
2023-01-25T02:28:55.847Z,45.20
2023-01-25T02:31:22.544Z,41.80
2023-01-25T02:33:49.471Z,40.97
2023-01-25T02:36:21.322Z,46.67
2023-01-25T02:39:01.505Z,45.00
2023-01-25T02:41:36.284Z,46.90
2023-01-25T02:46:36.066Z,47.50
2023-01-25T02:49:04.771Z,52.87
2023-01-25T02:51:34.656Z,54.77
2023-01-25T02:54:02.567Z,51.80
2023-01-25T02:56:30.127Z,55.77
2023-01-25T02:58:56.816Z,55.07
2023-01-25T03:01:23.785Z,55.37
2023-01-25T03:03:50.310Z,58.33
2023-01-25T03:06:17.146Z,54.07
2023-01-25T03:08:43.684Z,53.37
2023-01-25T03:11:10.239Z,53.17
2023-01-25T03:13:38.188Z,50.13
2023-01-25T03:16:08.393Z,51.50
2023-01-25T03:18:35.956Z,44.93
2023-01-25T03:21:23.421Z,49.37
2023-01-25T03:23:57.018Z,46.43
2023-01-25T03:26:24.312Z,46.80
2023-01-25T03:28:50.823Z,47.47
2023-01-25T03:31:18.435Z,44.20
2023-01-25T03:33:46.261Z,44.17
2023-01-25T03:36:13.177Z,41.97
2023-01-25T03:38:39.820Z,41.70
2023-01-25T03:41:06.403Z,41.30
2023-01-25T03:43:32.936Z,41.90
2023-01-25T03:46:01.581Z,39.80
2023-01-25T03:48:29.111Z,40.83
2023-01-25T03:50:58.142Z,40.27
2023-01-25T03:53:29.798Z,36.73
2023-01-25T03:55:59.672Z,40.30
2023-01-25T03:58:26.830Z,36.80
2023-01-25T04:00:56.346Z,38.03
2023-01-25T04:03:23.558Z,39.03
2023-01-25T04:05:50.746Z,40.47
2023-01-25T04:08:18.049Z,43.10
2023-01-25T04:10:45.642Z,41.80
2023-01-25T04:13:12.159Z,46.00
2023-01-25T04:15:38.694Z,40.87
2023-01-25T04:18:05.222Z,41.67
2023-01-25T04:20:31.763Z,39.93
2023-01-25T04:22:58.339Z,36.67
2023-01-25T04:25:24.898Z,38.63
2023-01-25T04:27:51.691Z,40.73
2023-01-25T04:30:19.397Z,43.47
2023-01-25T04:32:46.683Z,37.47
2023-01-25T04:35:13.383Z,37.20
2023-01-25T04:37:39.881Z,37.17
2023-01-25T04:40:07.721Z,34.80
2023-01-25T04:42:34.430Z,31.80
2023-01-25T04:45:00.959Z,36.73
2023-01-25T04:47:27.425Z,36.40
2023-01-25T04:49:53.861Z,42.13
2023-01-25T04:52:20.545Z,37.13
2023-01-25T04:54:47.100Z,35.50
2023-01-25T04:57:13.648Z,36.67
2023-01-25T04:59:40.187Z,38.30
2023-01-25T05:02:06.770Z,35.33
2023-01-25T05:04:33.332Z,37.57
2023-01-25T05:06:59.846Z,38.30
2023-01-25T05:09:26.295Z,41.43
2023-01-25T05:11:52.939Z,39.33
2023-01-25T05:14:19.430Z,38.93
2023-01-25T05:16:47.388Z,35.87
2023-01-25T05:19:14.059Z,35.47
2023-01-25T05:21:58.926Z,40.23
2023-01-25T05:24:35.379Z,33.63
2023-01-25T05:27:05.737Z,35.70
2023-01-25T05:29:37.861Z,34.50
2023-01-25T05:32:18.584Z,38.37
2023-01-25T05:34:45.612Z,36.70
2023-01-25T05:37:18.513Z,35.77
2023-01-25T05:39:45.257Z,39.03
2023-01-25T05:42:17.623Z,37.93
2023-01-25T05:44:47.038Z,32.43
2023-01-25T05:47:16.633Z,38.60
2023-01-25T05:49:43.420Z,37.63
2023-01-25T05:52:17.211Z,36.60
2023-01-25T05:54:43.906Z,31.80
2023-01-25T05:57:10.603Z,34.97
2023-01-25T05:59:37.114Z,38.87
2023-01-25T06:02:03.680Z,34.30
2023-01-25T06:04:30.225Z,32.47
2023-01-25T06:06:56.733Z,33.30
2023-01-25T06:09:23.580Z,35.33
2023-01-25T06:11:50.230Z,34.90
2023-01-25T06:14:17.161Z,36.30
2023-01-25T06:16:43.677Z,28.63
2023-01-25T06:19:13.561Z,32.63
2023-01-25T06:21:40.197Z,32.40
2023-01-25T06:24:07.301Z,33.60
2023-01-25T06:26:33.822Z,35.53
2023-01-25T06:29:00.446Z,38.23
2023-01-25T06:31:27.605Z,28.67
2023-01-25T06:33:54.344Z,34.20
2023-01-25T06:36:22.104Z,35.70
2023-01-25T06:38:50.729Z,34.77
2023-01-25T06:41:17.491Z,34.07
2023-01-25T06:43:44.246Z,35.27
2023-01-25T06:46:14.210Z,36.40
2023-01-25T06:48:42.948Z,33.47
2023-01-25T06:51:12.450Z,38.33
2023-01-25T06:53:41.981Z,34.13
2023-01-25T06:56:12.034Z,34.80
2023-01-25T06:58:39.739Z,37.07
2023-01-25T07:01:13.839Z,32.20
2023-01-25T07:03:41.001Z,37.60
2023-01-25T07:06:09.951Z,32.23
2023-01-25T07:08:37.385Z,37.50
2023-01-25T07:11:09.531Z,32.73
2023-01-25T07:13:36.080Z,34.67
2023-01-25T07:16:06.020Z,37.73
2023-01-25T07:18:33.328Z,34.17
2023-01-25T07:21:11.111Z,34.87
2023-01-25T07:23:38.440Z,35.93
2023-01-25T07:26:06.280Z,36.27
2023-01-25T07:28:33.305Z,29.20
2023-01-25T07:31:07.233Z,35.20
2023-01-25T07:33:34.720Z,34.97
2023-01-25T07:36:06.506Z,38.00
2023-01-25T07:38:33.622Z,32.30
2023-01-25T07:41:01.071Z,40.07
2023-01-25T07:43:27.924Z,33.63
2023-01-25T07:45:54.582Z,33.17
2023-01-25T07:48:21.405Z,39.20
2023-01-25T07:51:07.923Z,31.07
2023-01-25T07:53:34.431Z,33.27
2023-01-25T07:56:01.585Z,35.93
2023-01-25T07:58:28.164Z,33.13
2023-01-25T08:00:54.783Z,36.17
2023-01-25T08:03:22.259Z,33.13
2023-01-25T08:05:49.220Z,33.03
2023-01-25T08:08:15.780Z,34.33
2023-01-25T08:10:42.262Z,36.07
2023-01-25T08:13:08.731Z,36.47
2023-01-25T08:15:35.210Z,33.63
2023-01-25T08:18:02.312Z,32.90
2023-01-25T08:20:28.919Z,37.03
2023-01-25T08:22:55.540Z,37.53
2023-01-25T08:25:22.035Z,34.23
2023-01-25T08:27:48.647Z,29.87
2023-01-25T08:30:15.700Z,32.87
2023-01-25T08:32:42.155Z,33.63
2023-01-25T08:35:09.687Z,34.77
2023-01-25T08:37:36.414Z,33.43
2023-01-25T08:40:03.519Z,30.43
2023-01-25T08:42:32.280Z,35.87
2023-01-25T08:44:59.052Z,34.37
2023-01-25T08:47:26.674Z,36.67
2023-01-25T08:49:55.322Z,39.43
2023-01-25T08:52:22.916Z,32.13
2023-01-25T08:54:49.454Z,33.93
2023-01-25T08:57:15.944Z,36.00
2023-01-25T08:59:42.447Z,33.37
2023-01-25T09:02:12.453Z,36.33
2023-01-25T09:04:39.336Z,36.83
2023-01-25T09:07:06.165Z,38.93
2023-01-25T09:09:32.712Z,34.63
2023-01-25T09:11:59.229Z,37.47
2023-01-25T09:14:26.118Z,39.33
2023-01-25T09:16:52.628Z,37.77
2023-01-25T09:19:19.123Z,34.43
2023-01-25T09:21:45.755Z,36.20
2023-01-25T09:24:12.323Z,33.83
2023-01-25T09:26:42.942Z,35.83
2023-01-25T09:29:11.884Z,38.40
2023-01-25T09:31:44.095Z,36.97
2023-01-25T09:34:13.110Z,32.77
2023-01-25T09:36:40.018Z,36.53
2023-01-25T09:39:07.138Z,35.50
2023-01-25T09:41:42.569Z,35.10
2023-01-25T09:44:15.460Z,36.73
2023-01-25T09:46:44.206Z,38.20
2023-01-25T09:49:28.813Z,35.53
2023-01-25T09:52:16.947Z,32.47
2023-01-25T09:54:47.377Z,33.17
2023-01-25T09:57:38.040Z,35.90
2023-01-25T10:00:20.756Z,35.37
2023-01-25T10:02:58.130Z,35.23
2023-01-25T10:05:31.913Z,33.63
2023-01-25T10:08:12.350Z,36.07
2023-01-25T10:10:42.162Z,30.70
2023-01-25T10:13:14.095Z,29.00
2023-01-25T10:15:47.955Z,34.70
2023-01-25T10:18:33.038Z,36.20
2023-01-25T10:23:43.589Z,37.00
2023-01-25T10:26:22.089Z,31.17
2023-01-25T10:28:59.250Z,33.40
2023-01-25T10:31:39.213Z,28.93
2023-01-25T10:34:47.015Z,28.53
2023-01-25T10:37:26.895Z,33.10
2023-01-25T10:40:11.956Z,31.30
2023-01-25T10:42:44.760Z,31.08
2023-01-25T10:45:16.109Z,31.40
2023-01-25T10:47:50.440Z,33.07
2023-01-25T10:50:35.594Z,29.38
2023-01-25T10:55:28.568Z,28.33
2023-01-25T10:58:00.525Z,28.73
2023-01-25T11:00:41.732Z,27.47
2023-01-25T11:03:21.591Z,24.97
2023-01-25T11:05:55.865Z,21.57
2023-01-25T11:08:37.347Z,22.42
2023-01-25T11:11:23.285Z,24.63
2023-01-25T11:13:50.308Z,25.03
2023-01-25T11:16:24.907Z,24.13
2023-01-25T11:18:54.118Z,26.52
2023-01-25T11:21:25.247Z,24.03
2023-01-25T11:24:11.837Z,22.07
2023-01-25T11:26:40.697Z,21.87
2023-01-25T11:29:21.538Z,21.57
2023-01-25T11:31:51.531Z,23.97
2023-01-25T11:34:26.466Z,20.70
2023-01-25T11:37:11.846Z,16.93
2023-01-25T11:39:50.238Z,20.63
2023-01-25T11:42:22.703Z,19.43
2023-01-25T11:45:23.561Z,20.90
2023-01-25T11:48:28.444Z,14.60
2023-01-25T11:51:15.599Z,18.40
2023-01-25T11:54:17.521Z,19.83
2023-01-25T11:56:49.990Z,18.30
2023-01-25T11:59:45.078Z,22.03
2023-01-25T12:02:32.933Z,21.17
2023-01-25T12:05:22.601Z,22.37
2023-01-25T12:07:55.047Z,18.40
2023-01-25T12:10:58.805Z,21.90
2023-01-25T12:13:31.331Z,17.90
2023-01-25T12:16:09.810Z,20.13
2023-01-25T12:18:45.030Z,21.93
2023-01-25T12:21:31.310Z,19.27
2023-01-25T12:24:10.480Z,21.27
2023-01-25T12:26:49.205Z,22.10
2023-01-25T12:29:25.071Z,20.03
2023-01-25T12:31:55.409Z,22.17
2023-01-25T12:34:30.464Z,23.47
2023-01-25T12:37:03.498Z,24.88
2023-01-25T12:39:38.082Z,23.67
2023-01-25T12:42:14.510Z,24.25
2023-01-25T12:44:49.569Z,23.13
2023-01-25T12:47:36.308Z,22.20
2023-01-25T12:50:15.330Z,23.37
2023-01-25T12:52:49.265Z,26.57
2023-01-25T12:55:18.264Z,23.20
2023-01-25T12:58:01.158Z,26.27
2023-01-25T13:00:33.839Z,26.53
2023-01-25T13:03:11.081Z,23.57
2023-01-25T13:06:05.158Z,23.13
2023-01-25T13:08:49.144Z,27.93
2023-01-25T13:11:23.929Z,28.20
2023-01-25T13:16:29.153Z,25.33
2023-01-25T13:18:55.968Z,27.70
2023-01-25T13:21:37.456Z,23.37
2023-01-25T13:24:13.207Z,29.37
2023-01-25T13:26:55.010Z,25.70
2023-01-25T13:29:34.812Z,28.80
2023-01-25T13:32:02.823Z,24.37
2023-01-25T13:34:35.726Z,27.67
2023-01-25T13:37:33.706Z,23.57
2023-01-25T13:40:26.190Z,26.60
2023-01-25T13:43:22.466Z,25.63
2023-01-25T13:45:52.686Z,34.13
2023-01-25T13:48:25.100Z,21.40
2023-01-25T13:51:11.993Z,24.50
2023-01-25T13:53:39.747Z,30.23
2023-01-25T13:56:24.833Z,22.50
2023-01-25T13:58:51.331Z,28.30
2023-01-25T14:01:23.503Z,29.90
2023-01-25T14:03:53.419Z,30.17
2023-01-25T14:06:24.989Z,25.17
2023-01-25T14:08:53.720Z,21.23
2023-01-25T14:11:26.460Z,26.23
2023-01-25T14:14:18.792Z,25.27
2023-01-25T14:16:45.563Z,21.80
2023-01-25T14:19:29.477Z,29.03
2023-01-25T14:22:35.711Z,26.97
2023-01-25T14:25:08.145Z,29.77
2023-01-25T14:27:37.616Z,26.13
2023-01-25T14:30:05.580Z,25.20
2023-01-25T14:32:32.770Z,25.83
2023-01-25T14:34:59.388Z,24.70
2023-01-25T14:37:25.940Z,29.37
2023-01-25T14:39:53.037Z,28.83
2023-01-25T14:42:20.266Z,27.43
2023-01-25T14:44:47.474Z,28.83
2023-01-25T14:47:31.191Z,24.50
2023-01-25T14:50:30.119Z,26.17
2023-01-25T14:52:58.889Z,29.43
2023-01-25T14:55:26.645Z,26.40
2023-01-25T14:57:59.149Z,27.20
2023-01-25T15:00:34.491Z,28.33
2023-01-25T15:03:05.750Z,27.63
2023-01-25T15:05:35.154Z,28.10
2023-01-25T15:08:07.771Z,24.97
2023-01-25T15:10:36.896Z,26.77
2023-01-25T15:13:14.633Z,25.57
2023-01-25T15:15:55.285Z,28.10
2023-01-25T15:18:51.248Z,28.00
2023-01-25T15:21:26.867Z,29.13
2023-01-25T15:23:55.589Z,23.77
2023-01-25T15:26:23.359Z,27.63
2023-01-25T15:28:52.253Z,24.03
2023-01-25T15:31:28.769Z,26.10
2023-01-25T15:34:00.099Z,29.50
2023-01-25T15:36:27.185Z,27.93
2023-01-25T15:38:54.726Z,24.57
2023-01-25T15:41:21.439Z,27.47
2023-01-25T15:43:48.720Z,29.37
2023-01-25T15:46:19.275Z,32.13
2023-01-25T15:48:48.321Z,28.87
2023-01-25T15:51:15.128Z,28.23
2023-01-25T15:53:41.827Z,30.93
2023-01-25T15:56:14.442Z,25.17
2023-01-25T15:58:44.029Z,29.30
2023-01-25T16:01:10.700Z,28.23
2023-01-25T16:03:41.320Z,30.13
2023-01-25T16:06:41.954Z,25.87
2023-01-25T16:09:27.003Z,28.87
2023-01-25T16:11:55.313Z,30.13
2023-01-25T16:14:23.704Z,30.80
2023-01-25T16:16:52.804Z,29.43
2023-01-25T16:19:22.014Z,32.87
2023-01-25T16:21:49.011Z,32.27
2023-01-25T16:24:15.586Z,32.10
2023-01-25T16:26:57.269Z,34.40
2023-01-25T16:29:24.000Z,28.20
2023-01-25T16:31:51.979Z,32.77
2023-01-25T16:34:20.242Z,35.07
2023-01-25T16:36:50.464Z,30.87
2023-01-25T16:39:25.381Z,30.97
2023-01-25T16:41:52.178Z,31.73
2023-01-25T16:44:18.693Z,32.70
2023-01-25T16:46:47.471Z,32.40
2023-01-25T16:49:23.684Z,32.17
2023-01-25T16:51:50.875Z,28.83
2023-01-25T16:54:19.997Z,31.30
2023-01-25T16:56:48.621Z,37.37
2023-01-25T16:59:15.948Z,30.07
2023-01-25T17:01:44.171Z,35.90
2023-01-25T17:04:11.693Z,35.83
2023-01-25T17:06:47.735Z,32.87
2023-01-25T17:09:23.767Z,32.60
2023-01-25T17:11:51.998Z,33.23
2023-01-25T17:14:19.891Z,36.33
2023-01-25T17:16:48.483Z,33.17
2023-01-25T17:19:17.033Z,35.00
2023-01-25T17:21:44.786Z,41.77
2023-01-25T17:24:14.842Z,43.30
2023-01-25T17:26:41.583Z,39.27
2023-01-25T17:29:10.135Z,40.43
2023-01-25T17:31:37.444Z,40.17
2023-01-25T17:34:06.577Z,38.97
2023-01-25T17:36:33.516Z,36.93
2023-01-25T17:39:07.270Z,37.77
2023-01-25T17:41:34.005Z,37.43
2023-01-25T17:44:00.727Z,41.60
2023-01-25T17:46:32.420Z,38.87
2023-01-25T17:49:01.540Z,37.57
2023-01-25T17:51:28.384Z,45.33
2023-01-25T17:53:55.099Z,38.73
2023-01-25T17:56:21.764Z,44.03
2023-01-25T17:58:48.296Z,42.27
2023-01-25T18:01:23.500Z,39.60
2023-01-25T18:03:51.299Z,39.80
2023-01-25T18:06:21.282Z,40.63
2023-01-25T18:08:50.145Z,37.90
2023-01-25T18:11:19.990Z,43.13
2023-01-25T18:13:49.272Z,45.83
2023-01-25T18:16:17.557Z,41.60
2023-01-25T18:18:45.773Z,38.50
2023-01-25T18:21:22.154Z,43.00
2023-01-25T18:23:48.908Z,45.27
2023-01-25T18:26:29.706Z,47.27
2023-01-25T18:29:37.826Z,43.70
2023-01-25T18:32:05.577Z,40.17
2023-01-25T18:34:32.280Z,40.33
2023-01-25T18:36:59.382Z,43.13
2023-01-25T18:39:26.704Z,42.33
2023-01-25T18:41:53.185Z,43.77
2023-01-25T18:44:19.889Z,43.27
2023-01-25T18:46:47.938Z,44.27
2023-01-25T18:49:14.563Z,40.87
2023-01-25T18:52:01.845Z,41.60
2023-01-25T18:54:27.603Z,37.10
2023-01-25T18:56:54.900Z,44.03
2023-01-25T18:59:21.381Z,42.33
2023-01-25T19:01:48.317Z,41.90
2023-01-25T19:04:15.011Z,43.77
2023-01-25T19:06:41.521Z,44.63
2023-01-25T19:09:08.046Z,44.97
2023-01-25T19:11:34.539Z,48.30
2023-01-25T19:14:01.733Z,43.97
2023-01-25T19:16:28.412Z,48.37
2023-01-25T19:18:55.366Z,48.00
2023-01-25T19:21:26.687Z,52.63
2023-01-25T19:23:54.872Z,44.63
2023-01-25T19:26:24.608Z,44.20
2023-01-25T19:28:52.014Z,41.37
2023-01-25T19:31:24.120Z,43.80
2023-01-25T19:34:00.446Z,41.90
2023-01-25T19:36:29.057Z,40.43
2023-01-25T19:38:57.361Z,38.83
2023-01-25T19:41:26.949Z,37.37
2023-01-25T19:43:58.391Z,40.00
2023-01-25T19:46:27.657Z,38.47
2023-01-25T19:48:54.864Z,40.97
2023-01-25T19:51:24.421Z,36.33
2023-01-25T19:53:58.582Z,38.87
2023-01-25T19:56:26.816Z,42.05
2023-01-25T19:58:53.739Z,39.80
2023-01-25T20:01:23.103Z,41.67
2023-01-25T20:03:50.124Z,45.87
2023-01-25T20:06:18.398Z,42.70
2023-01-25T20:08:46.478Z,39.23
2023-01-25T20:11:21.475Z,37.70
2023-01-25T20:13:49.734Z,47.90
2023-01-25T20:16:17.238Z,39.70
2023-01-25T20:18:45.371Z,45.10
2023-01-25T20:21:15.337Z,44.20
2023-01-25T20:23:44.373Z,40.83
2023-01-25T20:26:14.047Z,40.33
2023-01-25T20:28:42.404Z,39.23
2023-01-25T20:31:22.676Z,38.73
2023-01-25T20:33:50.647Z,38.70
2023-01-25T20:36:17.570Z,42.77
2023-01-25T20:38:44.896Z,44.60
2023-01-25T20:41:16.629Z,42.13
2023-01-25T20:43:57.431Z,47.20
2023-01-25T20:46:25.249Z,38.87
2023-01-25T20:48:53.695Z,41.33
2023-01-25T20:51:21.677Z,43.83
2023-01-25T20:53:50.059Z,43.57
2023-01-25T20:56:18.145Z,40.47
2023-01-25T20:58:50.404Z,45.90
2023-01-25T21:01:36.547Z,43.10
2023-01-25T21:04:04.691Z,45.50
2023-01-25T21:06:31.311Z,44.57
2023-01-25T21:08:59.259Z,45.23
2023-01-25T21:11:26.404Z,43.03
2023-01-25T21:13:54.007Z,46.47
2023-01-25T21:16:22.270Z,42.57
2023-01-25T21:18:51.746Z,46.97
2023-01-25T21:21:23.869Z,42.10
2023-01-25T21:23:51.012Z,44.47
2023-01-25T21:26:26.086Z,44.83
2023-01-25T21:28:56.319Z,45.33
2023-01-25T21:31:26.344Z,40.23
2023-01-25T21:33:54.570Z,45.00
2023-01-25T21:36:22.359Z,41.43
2023-01-25T21:38:50.354Z,47.23
2023-01-25T21:41:24.345Z,39.67
2023-01-25T21:44:14.214Z,45.08
2023-01-25T21:46:41.374Z,41.33
2023-01-25T21:49:28.748Z,47.77
2023-01-25T21:51:59.165Z,44.17
2023-01-25T21:54:31.146Z,40.50
2023-01-25T21:56:59.465Z,41.40
2023-01-25T21:59:27.468Z,41.50
2023-01-25T22:01:55.211Z,42.40
2023-01-25T22:04:23.889Z,44.27
2023-01-25T22:06:52.503Z,47.37
2023-01-25T22:09:19.348Z,40.33
2023-01-25T22:11:48.054Z,46.33
2023-01-25T22:14:15.568Z,38.40
2023-01-25T22:16:42.253Z,37.80
2023-01-25T22:19:08.953Z,39.33
2023-01-25T22:21:35.495Z,35.87
2023-01-25T22:24:04.653Z,38.00
2023-01-25T22:26:47.868Z,41.60
2023-01-25T22:29:15.185Z,37.63
2023-01-25T22:31:42.272Z,36.73
2023-01-25T22:34:09.588Z,36.37
2023-01-25T22:36:36.136Z,37.40
2023-01-25T22:39:02.671Z,38.10
2023-01-25T22:41:31.651Z,38.93
2023-01-25T22:43:58.508Z,35.73
2023-01-25T22:46:27.760Z,38.07
2023-01-25T22:48:54.664Z,38.13
2023-01-25T22:51:31.399Z,36.87
2023-01-25T22:53:59.717Z,42.23
2023-01-25T22:56:34.163Z,38.60
2023-01-25T22:59:01.742Z,41.28
2023-01-25T23:01:31.187Z,41.53
2023-01-25T23:03:57.846Z,43.07
2023-01-25T23:06:27.193Z,36.13
2023-01-25T23:09:00.105Z,36.43
2023-01-25T23:11:32.313Z,39.33
2023-01-25T23:14:18.579Z,41.17
2023-01-25T23:16:45.211Z,38.37
2023-01-25T23:19:11.984Z,44.00
2023-01-25T23:21:38.564Z,37.90
2023-01-25T23:24:05.616Z,43.40
2023-01-25T23:26:37.551Z,36.93
2023-01-25T23:29:07.328Z,36.60
2023-01-25T23:31:33.982Z,35.90
2023-01-25T23:34:02.804Z,34.40
2023-01-25T23:36:44.419Z,37.80
2023-01-25T23:39:12.991Z,35.23
2023-01-25T23:41:39.505Z,41.30
2023-01-25T23:44:06.002Z,32.37
2023-01-25T23:46:32.569Z,33.93
2023-01-25T23:48:59.149Z,35.90
2023-01-25T23:51:25.697Z,33.13
2023-01-25T23:53:53.591Z,36.53
2023-01-25T23:56:21.674Z,38.97
2023-01-25T23:58:49.054Z,33.13
